sensor_id;sensor_type;location;lat;lon;timestamp;P1;durP1;ratioP1;P2;durP2;ratioP2
24585;SDS011;12743;52.262;6.172;2023-04-15T00:00:56;7.53;;;2.53;;
24585;SDS011;12743;52.262;6.172;2023-04-15T00:03:24;7.20;;;2.90;;
24585;SDS011;12743;52.262;6.172;2023-04-15T00:05:52;8.40;;;2.83;;
24585;SDS011;12743;52.262;6.172;2023-04-15T00:08:18;8.32;;;2.90;;
24585;SDS011;12743;52.262;6.172;2023-04-15T00:10:45;6.30;;;2.55;;
24585;SDS011;12743;52.262;6.172;2023-04-15T00:13:12;7.27;;;2.90;;
24585;SDS011;12743;52.262;6.172;2023-04-15T00:15:38;6.43;;;2.88;;
24585;SDS011;12743;52.262;6.172;2023-04-15T00:18:05;7.40;;;3.25;;
24585;SDS011;12743;52.262;6.172;2023-04-15T00:20:33;8.70;;;3.22;;
24585;SDS011;12743;52.262;6.172;2023-04-15T00:23:01;6.13;;;2.63;;
24585;SDS011;12743;52.262;6.172;2023-04-15T00:25:29;7.30;;;2.87;;
24585;SDS011;12743;52.262;6.172;2023-04-15T00:27:55;7.68;;;2.90;;
24585;SDS011;12743;52.262;6.172;2023-04-15T00:30:22;9.82;;;2.90;;
24585;SDS011;12743;52.262;6.172;2023-04-15T00:32:49;7.63;;;3.00;;
24585;SDS011;12743;52.262;6.172;2023-04-15T00:35:19;5.93;;;2.90;;
24585;SDS011;12743;52.262;6.172;2023-04-15T00:37:49;10.50;;;3.07;;
24585;SDS011;12743;52.262;6.172;2023-04-15T00:40:16;7.63;;;3.35;;
24585;SDS011;12743;52.262;6.172;2023-04-15T00:42:44;7.38;;;3.10;;
24585;SDS011;12743;52.262;6.172;2023-04-15T00:45:12;8.75;;;2.90;;
24585;SDS011;12743;52.262;6.172;2023-04-15T00:47:40;10.88;;;3.10;;
24585;SDS011;12743;52.262;6.172;2023-04-15T00:50:08;8.70;;;3.43;;
24585;SDS011;12743;52.262;6.172;2023-04-15T00:52:36;6.70;;;3.25;;
24585;SDS011;12743;52.262;6.172;2023-04-15T00:55:03;9.18;;;3.33;;
24585;SDS011;12743;52.262;6.172;2023-04-15T00:57:31;10.43;;;3.33;;
24585;SDS011;12743;52.262;6.172;2023-04-15T00:59:58;6.93;;;3.33;;
24585;SDS011;12743;52.262;6.172;2023-04-15T01:02:26;9.30;;;3.73;;
24585;SDS011;12743;52.262;6.172;2023-04-15T01:04:53;8.50;;;3.30;;
24585;SDS011;12743;52.262;6.172;2023-04-15T01:07:19;8.13;;;3.88;;
24585;SDS011;12743;52.262;6.172;2023-04-15T01:09:46;9.00;;;3.60;;
24585;SDS011;12743;52.262;6.172;2023-04-15T01:12:13;7.93;;;3.33;;
24585;SDS011;12743;52.262;6.172;2023-04-15T01:14:41;9.27;;;3.30;;
24585;SDS011;12743;52.262;6.172;2023-04-15T01:17:08;8.40;;;3.30;;
24585;SDS011;12743;52.262;6.172;2023-04-15T01:19:35;8.77;;;3.78;;
24585;SDS011;12743;52.262;6.172;2023-04-15T01:22:02;8.63;;;3.00;;
24585;SDS011;12743;52.262;6.172;2023-04-15T01:24:29;8.02;;;3.42;;
24585;SDS011;12743;52.262;6.172;2023-04-15T01:26:57;8.83;;;3.50;;
24585;SDS011;12743;52.262;6.172;2023-04-15T01:29:24;9.00;;;3.72;;
24585;SDS011;12743;52.262;6.172;2023-04-15T01:31:51;6.32;;;2.80;;
24585;SDS011;12743;52.262;6.172;2023-04-15T01:34:19;8.23;;;3.50;;
24585;SDS011;12743;52.262;6.172;2023-04-15T01:36:46;7.80;;;3.40;;
24585;SDS011;12743;52.262;6.172;2023-04-15T01:39:13;8.00;;;3.93;;
24585;SDS011;12743;52.262;6.172;2023-04-15T01:41:39;9.27;;;3.63;;
24585;SDS011;12743;52.262;6.172;2023-04-15T01:44:07;9.45;;;3.72;;
24585;SDS011;12743;52.262;6.172;2023-04-15T01:46:34;7.40;;;3.60;;
24585;SDS011;12743;52.262;6.172;2023-04-15T01:49:01;7.75;;;3.20;;
24585;SDS011;12743;52.262;6.172;2023-04-15T01:51:30;7.33;;;3.57;;
24585;SDS011;12743;52.262;6.172;2023-04-15T01:53:57;7.47;;;3.50;;
24585;SDS011;12743;52.262;6.172;2023-04-15T01:56:23;9.43;;;4.03;;
24585;SDS011;12743;52.262;6.172;2023-04-15T01:58:51;7.78;;;3.42;;
24585;SDS011;12743;52.262;6.172;2023-04-15T02:01:17;9.13;;;3.78;;
24585;SDS011;12743;52.262;6.172;2023-04-15T02:03:45;8.13;;;3.30;;
24585;SDS011;12743;52.262;6.172;2023-04-15T02:06:13;8.65;;;3.85;;
24585;SDS011;12743;52.262;6.172;2023-04-15T02:08:40;8.02;;;3.72;;
24585;SDS011;12743;52.262;6.172;2023-04-15T02:11:07;9.80;;;3.90;;
24585;SDS011;12743;52.262;6.172;2023-04-15T02:13:33;11.25;;;3.95;;
24585;SDS011;12743;52.262;6.172;2023-04-15T02:16:00;8.53;;;3.63;;
24585;SDS011;12743;52.262;6.172;2023-04-15T02:18:26;8.00;;;3.53;;
24585;SDS011;12743;52.262;6.172;2023-04-15T02:20:53;9.68;;;3.90;;
24585;SDS011;12743;52.262;6.172;2023-04-15T02:23:21;7.88;;;3.88;;
24585;SDS011;12743;52.262;6.172;2023-04-15T02:25:48;6.95;;;3.50;;
24585;SDS011;12743;52.262;6.172;2023-04-15T02:28:19;10.40;;;4.07;;
24585;SDS011;12743;52.262;6.172;2023-04-15T02:30:46;9.75;;;4.10;;
24585;SDS011;12743;52.262;6.172;2023-04-15T02:33:15;7.93;;;3.60;;
24585;SDS011;12743;52.262;6.172;2023-04-15T02:35:42;9.38;;;3.90;;
24585;SDS011;12743;52.262;6.172;2023-04-15T02:38:10;9.80;;;4.03;;
24585;SDS011;12743;52.262;6.172;2023-04-15T02:40:37;9.40;;;4.50;;
24585;SDS011;12743;52.262;6.172;2023-04-15T02:43:05;9.70;;;4.18;;
24585;SDS011;12743;52.262;6.172;2023-04-15T02:45:33;9.50;;;4.30;;
24585;SDS011;12743;52.262;6.172;2023-04-15T02:48:01;10.52;;;4.65;;
24585;SDS011;12743;52.262;6.172;2023-04-15T02:50:31;8.48;;;3.72;;
24585;SDS011;12743;52.262;6.172;2023-04-15T02:52:58;9.00;;;3.87;;
24585;SDS011;12743;52.262;6.172;2023-04-15T02:55:27;9.20;;;4.35;;
24585;SDS011;12743;52.262;6.172;2023-04-15T02:57:54;9.52;;;4.07;;
24585;SDS011;12743;52.262;6.172;2023-04-15T03:00:21;9.07;;;4.05;;
24585;SDS011;12743;52.262;6.172;2023-04-15T03:02:50;8.82;;;4.55;;
24585;SDS011;12743;52.262;6.172;2023-04-15T03:05:22;11.37;;;4.70;;
24585;SDS011;12743;52.262;6.172;2023-04-15T03:07:51;10.73;;;4.63;;
24585;SDS011;12743;52.262;6.172;2023-04-15T03:10:18;9.38;;;4.60;;
24585;SDS011;12743;52.262;6.172;2023-04-15T03:12:45;8.95;;;4.35;;
24585;SDS011;12743;52.262;6.172;2023-04-15T03:15:16;10.57;;;3.83;;
24585;SDS011;12743;52.262;6.172;2023-04-15T03:17:46;7.90;;;3.97;;
24585;SDS011;12743;52.262;6.172;2023-04-15T03:20:14;8.02;;;3.97;;
24585;SDS011;12743;52.262;6.172;2023-04-15T03:22:42;8.80;;;4.90;;
24585;SDS011;12743;52.262;6.172;2023-04-15T03:25:09;10.25;;;4.35;;
24585;SDS011;12743;52.262;6.172;2023-04-15T03:27:37;11.45;;;4.85;;
24585;SDS011;12743;52.262;6.172;2023-04-15T03:30:04;8.20;;;4.10;;
24585;SDS011;12743;52.262;6.172;2023-04-15T03:32:34;11.52;;;4.80;;
24585;SDS011;12743;52.262;6.172;2023-04-15T03:35:01;10.90;;;4.43;;
24585;SDS011;12743;52.262;6.172;2023-04-15T03:37:27;10.32;;;5.10;;
24585;SDS011;12743;52.262;6.172;2023-04-15T03:39:54;10.80;;;4.75;;
24585;SDS011;12743;52.262;6.172;2023-04-15T03:42:20;11.83;;;5.10;;
24585;SDS011;12743;52.262;6.172;2023-04-15T03:44:47;8.65;;;4.43;;
24585;SDS011;12743;52.262;6.172;2023-04-15T03:47:13;9.57;;;4.85;;
24585;SDS011;12743;52.262;6.172;2023-04-15T03:49:40;10.02;;;4.43;;
24585;SDS011;12743;52.262;6.172;2023-04-15T03:52:07;9.43;;;4.40;;
24585;SDS011;12743;52.262;6.172;2023-04-15T03:54:33;11.50;;;4.60;;
24585;SDS011;12743;52.262;6.172;2023-04-15T03:57:00;7.35;;;4.10;;
24585;SDS011;12743;52.262;6.172;2023-04-15T03:59:26;9.63;;;5.28;;
24585;SDS011;12743;52.262;6.172;2023-04-15T04:01:53;11.25;;;4.78;;
24585;SDS011;12743;52.262;6.172;2023-04-15T04:04:19;10.90;;;5.35;;
24585;SDS011;12743;52.262;6.172;2023-04-15T04:06:46;9.13;;;4.13;;
24585;SDS011;12743;52.262;6.172;2023-04-15T04:09:13;8.68;;;4.82;;
24585;SDS011;12743;52.262;6.172;2023-04-15T04:11:39;11.35;;;5.32;;
24585;SDS011;12743;52.262;6.172;2023-04-15T04:14:06;11.73;;;5.32;;
24585;SDS011;12743;52.262;6.172;2023-04-15T04:16:32;13.95;;;4.80;;
24585;SDS011;12743;52.262;6.172;2023-04-15T04:18:59;12.87;;;5.47;;
24585;SDS011;12743;52.262;6.172;2023-04-15T04:21:26;10.48;;;5.20;;
24585;SDS011;12743;52.262;6.172;2023-04-15T04:23:53;9.77;;;4.90;;
24585;SDS011;12743;52.262;6.172;2023-04-15T04:26:20;11.07;;;5.13;;
24585;SDS011;12743;52.262;6.172;2023-04-15T04:28:46;9.95;;;5.28;;
24585;SDS011;12743;52.262;6.172;2023-04-15T04:31:13;11.27;;;5.70;;
24585;SDS011;12743;52.262;6.172;2023-04-15T04:33:40;11.02;;;5.60;;
24585;SDS011;12743;52.262;6.172;2023-04-15T04:36:06;10.23;;;5.45;;
24585;SDS011;12743;52.262;6.172;2023-04-15T04:38:33;10.65;;;5.00;;
24585;SDS011;12743;52.262;6.172;2023-04-15T04:40:59;11.55;;;5.97;;
24585;SDS011;12743;52.262;6.172;2023-04-15T04:43:26;12.10;;;6.00;;
24585;SDS011;12743;52.262;6.172;2023-04-15T04:45:53;10.70;;;5.30;;
24585;SDS011;12743;52.262;6.172;2023-04-15T04:48:19;12.55;;;5.78;;
24585;SDS011;12743;52.262;6.172;2023-04-15T04:50:46;12.98;;;6.15;;
24585;SDS011;12743;52.262;6.172;2023-04-15T04:53:13;12.40;;;5.90;;
24585;SDS011;12743;52.262;6.172;2023-04-15T04:55:40;10.97;;;5.60;;
24585;SDS011;12743;52.262;6.172;2023-04-15T04:58:06;12.00;;;6.07;;
24585;SDS011;12743;52.262;6.172;2023-04-15T05:00:33;16.35;;;6.35;;
24585;SDS011;12743;52.262;6.172;2023-04-15T05:02:59;11.75;;;6.32;;
24585;SDS011;12743;52.262;6.172;2023-04-15T05:05:26;11.07;;;6.40;;
24585;SDS011;12743;52.262;6.172;2023-04-15T05:07:53;13.53;;;5.93;;
24585;SDS011;12743;52.262;6.172;2023-04-15T05:10:19;11.52;;;6.03;;
24585;SDS011;12743;52.262;6.172;2023-04-15T05:12:46;13.70;;;6.70;;
24585;SDS011;12743;52.262;6.172;2023-04-15T05:15:13;14.07;;;6.97;;
24585;SDS011;12743;52.262;6.172;2023-04-15T05:17:39;12.57;;;6.45;;
24585;SDS011;12743;52.262;6.172;2023-04-15T05:20:06;13.97;;;6.70;;
24585;SDS011;12743;52.262;6.172;2023-04-15T05:22:33;12.63;;;6.70;;
24585;SDS011;12743;52.262;6.172;2023-04-15T05:24:59;13.95;;;6.88;;
24585;SDS011;12743;52.262;6.172;2023-04-15T05:27:26;14.20;;;7.65;;
24585;SDS011;12743;52.262;6.172;2023-04-15T05:29:52;13.45;;;6.97;;
24585;SDS011;12743;52.262;6.172;2023-04-15T05:32:19;13.07;;;6.50;;
24585;SDS011;12743;52.262;6.172;2023-04-15T05:34:46;13.88;;;7.13;;
24585;SDS011;12743;52.262;6.172;2023-04-15T05:37:12;14.82;;;7.18;;
24585;SDS011;12743;52.262;6.172;2023-04-15T05:39:39;15.95;;;7.15;;
24585;SDS011;12743;52.262;6.172;2023-04-15T05:42:05;13.55;;;6.50;;
24585;SDS011;12743;52.262;6.172;2023-04-15T05:44:32;13.40;;;6.73;;
24585;SDS011;12743;52.262;6.172;2023-04-15T05:46:59;13.60;;;6.63;;
24585;SDS011;12743;52.262;6.172;2023-04-15T05:49:26;11.48;;;6.47;;
24585;SDS011;12743;52.262;6.172;2023-04-15T05:51:52;13.57;;;7.25;;
24585;SDS011;12743;52.262;6.172;2023-04-15T05:54:19;16.67;;;7.70;;
24585;SDS011;12743;52.262;6.172;2023-04-15T05:56:47;13.20;;;6.70;;
24585;SDS011;12743;52.262;6.172;2023-04-15T05:59:14;13.13;;;6.97;;
24585;SDS011;12743;52.262;6.172;2023-04-15T06:01:40;12.73;;;7.40;;
24585;SDS011;12743;52.262;6.172;2023-04-15T06:04:07;11.75;;;6.32;;
24585;SDS011;12743;52.262;6.172;2023-04-15T06:06:35;12.88;;;6.82;;
24585;SDS011;12743;52.262;6.172;2023-04-15T06:09:01;15.77;;;8.13;;
24585;SDS011;12743;52.262;6.172;2023-04-15T06:11:28;12.90;;;7.15;;
24585;SDS011;12743;52.262;6.172;2023-04-15T06:13:55;16.98;;;8.23;;
24585;SDS011;12743;52.262;6.172;2023-04-15T06:16:21;15.20;;;8.98;;
24585;SDS011;12743;52.262;6.172;2023-04-15T06:18:48;12.95;;;7.47;;
24585;SDS011;12743;52.262;6.172;2023-04-15T06:21:15;14.70;;;8.53;;
24585;SDS011;12743;52.262;6.172;2023-04-15T06:23:41;17.00;;;8.48;;
24585;SDS011;12743;52.262;6.172;2023-04-15T06:26:08;14.75;;;8.15;;
24585;SDS011;12743;52.262;6.172;2023-04-15T06:28:34;19.15;;;8.90;;
24585;SDS011;12743;52.262;6.172;2023-04-15T06:31:01;20.38;;;9.50;;
24585;SDS011;12743;52.262;6.172;2023-04-15T06:33:28;15.47;;;8.40;;
24585;SDS011;12743;52.262;6.172;2023-04-15T06:35:54;17.05;;;9.05;;
24585;SDS011;12743;52.262;6.172;2023-04-15T06:38:21;17.23;;;9.52;;
24585;SDS011;12743;52.262;6.172;2023-04-15T06:40:47;19.67;;;9.68;;
24585;SDS011;12743;52.262;6.172;2023-04-15T06:43:14;16.65;;;9.00;;
24585;SDS011;12743;52.262;6.172;2023-04-15T06:45:40;17.00;;;8.87;;
24585;SDS011;12743;52.262;6.172;2023-04-15T06:48:07;17.63;;;9.85;;
24585;SDS011;12743;52.262;6.172;2023-04-15T06:50:33;18.35;;;9.60;;
24585;SDS011;12743;52.262;6.172;2023-04-15T06:53:00;16.30;;;9.73;;
24585;SDS011;12743;52.262;6.172;2023-04-15T06:55:28;18.17;;;9.60;;
24585;SDS011;12743;52.262;6.172;2023-04-15T06:57:54;20.87;;;9.23;;
24585;SDS011;12743;52.262;6.172;2023-04-15T07:00:21;23.83;;;8.40;;
24585;SDS011;12743;52.262;6.172;2023-04-15T07:02:47;19.38;;;8.30;;
24585;SDS011;12743;52.262;6.172;2023-04-15T07:05:14;18.63;;;8.90;;
24585;SDS011;12743;52.262;6.172;2023-04-15T07:07:41;20.10;;;8.13;;
24585;SDS011;12743;52.262;6.172;2023-04-15T07:10:08;25.83;;;9.27;;
24585;SDS011;12743;52.262;6.172;2023-04-15T07:12:35;22.17;;;7.60;;
24585;SDS011;12743;52.262;6.172;2023-04-15T07:15:01;70.20;;;9.88;;
24585;SDS011;12743;52.262;6.172;2023-04-15T07:17:28;37.88;;;9.82;;
24585;SDS011;12743;52.262;6.172;2023-04-15T07:19:55;16.05;;;7.10;;
24585;SDS011;12743;52.262;6.172;2023-04-15T07:22:22;20.43;;;7.30;;
24585;SDS011;12743;52.262;6.172;2023-04-15T07:24:48;13.13;;;7.00;;
24585;SDS011;12743;52.262;6.172;2023-04-15T07:27:15;13.35;;;6.82;;
24585;SDS011;12743;52.262;6.172;2023-04-15T07:29:43;15.82;;;7.45;;
24585;SDS011;12743;52.262;6.172;2023-04-15T07:32:09;14.88;;;7.47;;
24585;SDS011;12743;52.262;6.172;2023-04-15T07:34:36;12.60;;;6.10;;
24585;SDS011;12743;52.262;6.172;2023-04-15T07:37:03;11.55;;;5.82;;
24585;SDS011;12743;52.262;6.172;2023-04-15T07:39:29;15.02;;;6.15;;
24585;SDS011;12743;52.262;6.172;2023-04-15T07:41:56;13.68;;;6.22;;
24585;SDS011;12743;52.262;6.172;2023-04-15T07:44:25;12.13;;;5.82;;
24585;SDS011;12743;52.262;6.172;2023-04-15T07:46:52;11.63;;;5.20;;
24585;SDS011;12743;52.262;6.172;2023-04-15T07:49:18;13.13;;;5.88;;
24585;SDS011;12743;52.262;6.172;2023-04-15T07:51:46;11.30;;;5.60;;
24585;SDS011;12743;52.262;6.172;2023-04-15T07:54:14;10.30;;;5.25;;
24585;SDS011;12743;52.262;6.172;2023-04-15T07:56:41;28.15;;;6.25;;
24585;SDS011;12743;52.262;6.172;2023-04-15T07:59:08;14.50;;;5.37;;
24585;SDS011;12743;52.262;6.172;2023-04-15T08:01:35;9.75;;;5.00;;
24585;SDS011;12743;52.262;6.172;2023-04-15T08:04:02;10.40;;;5.55;;
24585;SDS011;12743;52.262;6.172;2023-04-15T08:06:29;10.95;;;5.28;;
24585;SDS011;12743;52.262;6.172;2023-04-15T08:08:56;11.00;;;4.70;;
24585;SDS011;12743;52.262;6.172;2023-04-15T08:11:23;11.47;;;5.20;;
24585;SDS011;12743;52.262;6.172;2023-04-15T08:13:51;8.38;;;4.50;;
24585;SDS011;12743;52.262;6.172;2023-04-15T08:16:24;10.20;;;4.93;;
24585;SDS011;12743;52.262;6.172;2023-04-15T08:18:54;11.35;;;4.25;;
24585;SDS011;12743;52.262;6.172;2023-04-15T08:21:21;8.77;;;4.78;;
24585;SDS011;12743;52.262;6.172;2023-04-15T08:23:48;11.53;;;4.70;;
24585;SDS011;12743;52.262;6.172;2023-04-15T08:26:16;10.60;;;4.82;;
24585;SDS011;12743;52.262;6.172;2023-04-15T08:28:43;18.58;;;5.28;;
24585;SDS011;12743;52.262;6.172;2023-04-15T08:31:11;15.48;;;5.07;;
24585;SDS011;12743;52.262;6.172;2023-04-15T08:33:38;12.23;;;4.40;;
24585;SDS011;12743;52.262;6.172;2023-04-15T08:36:04;12.87;;;5.07;;
24585;SDS011;12743;52.262;6.172;2023-04-15T08:38:32;14.38;;;5.50;;
24585;SDS011;12743;52.262;6.172;2023-04-15T08:40:59;30.52;;;6.10;;
24585;SDS011;12743;52.262;6.172;2023-04-15T08:43:56;12.05;;;5.95;;
24585;SDS011;12743;52.262;6.172;2023-04-15T08:46:24;11.45;;;6.53;;
24585;SDS011;12743;52.262;6.172;2023-04-15T08:48:51;17.87;;;5.47;;
24585;SDS011;12743;52.262;6.172;2023-04-15T08:51:21;12.52;;;5.85;;
24585;SDS011;12743;52.262;6.172;2023-04-15T08:53:51;31.25;;;6.00;;
24585;SDS011;12743;52.262;6.172;2023-04-15T08:56:17;13.23;;;6.13;;
24585;SDS011;12743;52.262;6.172;2023-04-15T08:58:45;13.57;;;6.15;;
24585;SDS011;12743;52.262;6.172;2023-04-15T09:01:12;18.80;;;6.30;;
24585;SDS011;12743;52.262;6.172;2023-04-15T09:03:39;19.10;;;6.07;;
24585;SDS011;12743;52.262;6.172;2023-04-15T09:06:06;16.08;;;5.85;;
24585;SDS011;12743;52.262;6.172;2023-04-15T09:08:32;13.82;;;5.68;;
24585;SDS011;12743;52.262;6.172;2023-04-15T09:11:02;11.63;;;4.75;;
24585;SDS011;12743;52.262;6.172;2023-04-15T09:13:29;9.27;;;4.40;;
24585;SDS011;12743;52.262;6.172;2023-04-15T09:15:56;9.60;;;4.03;;
24585;SDS011;12743;52.262;6.172;2023-04-15T09:18:27;9.98;;;3.58;;
24585;SDS011;12743;52.262;6.172;2023-04-15T09:20:56;11.20;;;3.80;;
24585;SDS011;12743;52.262;6.172;2023-04-15T09:23:30;9.35;;;3.17;;
24585;SDS011;12743;52.262;6.172;2023-04-15T09:25:57;16.40;;;3.30;;
24585;SDS011;12743;52.262;6.172;2023-04-15T09:28:24;15.00;;;2.95;;
24585;SDS011;12743;52.262;6.172;2023-04-15T09:31:00;11.95;;;3.40;;
24585;SDS011;12743;52.262;6.172;2023-04-15T09:33:28;7.70;;;3.38;;
24585;SDS011;12743;52.262;6.172;2023-04-15T09:36:04;9.43;;;3.40;;
24585;SDS011;12743;52.262;6.172;2023-04-15T09:38:32;8.60;;;3.83;;
24585;SDS011;12743;52.262;6.172;2023-04-15T09:40:58;15.60;;;3.40;;
24585;SDS011;12743;52.262;6.172;2023-04-15T09:43:43;13.85;;;2.88;;
24585;SDS011;12743;52.262;6.172;2023-04-15T09:46:09;7.97;;;2.97;;
24585;SDS011;12743;52.262;6.172;2023-04-15T09:48:36;6.47;;;2.88;;
24585;SDS011;12743;52.262;6.172;2023-04-15T09:51:02;30.17;;;4.67;;
24585;SDS011;12743;52.262;6.172;2023-04-15T09:53:29;44.47;;;5.18;;
24585;SDS011;12743;52.262;6.172;2023-04-15T09:56:00;20.88;;;3.00;;
24585;SDS011;12743;52.262;6.172;2023-04-15T10:00:59;15.95;;;3.10;;
24585;SDS011;12743;52.262;6.172;2023-04-15T10:03:28;15.40;;;3.17;;
24585;SDS011;12743;52.262;6.172;2023-04-15T10:05:57;8.10;;;2.92;;
24585;SDS011;12743;52.262;6.172;2023-04-15T10:08:29;11.93;;;3.42;;
24585;SDS011;12743;52.262;6.172;2023-04-15T10:10:58;8.82;;;2.47;;
24585;SDS011;12743;52.262;6.172;2023-04-15T10:13:28;9.02;;;2.70;;
24585;SDS011;12743;52.262;6.172;2023-04-15T10:16:05;9.43;;;3.10;;
24585;SDS011;12743;52.262;6.172;2023-04-15T10:18:37;8.73;;;2.80;;
24585;SDS011;12743;52.262;6.172;2023-04-15T10:21:09;6.75;;;2.55;;
24585;SDS011;12743;52.262;6.172;2023-04-15T10:23:36;6.20;;;2.70;;
24585;SDS011;12743;52.262;6.172;2023-04-15T10:26:03;7.80;;;3.20;;
24585;SDS011;12743;52.262;6.172;2023-04-15T10:28:30;7.33;;;2.53;;
24585;SDS011;12743;52.262;6.172;2023-04-15T10:30:57;6.18;;;2.50;;
24585;SDS011;12743;52.262;6.172;2023-04-15T10:33:25;6.45;;;2.35;;
24585;SDS011;12743;52.262;6.172;2023-04-15T10:35:53;5.45;;;1.85;;
24585;SDS011;12743;52.262;6.172;2023-04-15T10:38:34;4.40;;;2.00;;
24585;SDS011;12743;52.262;6.172;2023-04-15T10:41:15;5.57;;;2.30;;
24585;SDS011;12743;52.262;6.172;2023-04-15T10:46:39;5.53;;;2.10;;
24585;SDS011;12743;52.262;6.172;2023-04-15T10:51:33;5.03;;;1.88;;
24585;SDS011;12743;52.262;6.172;2023-04-15T10:54:14;5.33;;;1.70;;
24585;SDS011;12743;52.262;6.172;2023-04-15T10:56:43;6.45;;;1.90;;
24585;SDS011;12743;52.262;6.172;2023-04-15T10:59:10;6.90;;;1.85;;
24585;SDS011;12743;52.262;6.172;2023-04-15T11:04:54;5.10;;;1.80;;
24585;SDS011;12743;52.262;6.172;2023-04-15T11:07:46;5.07;;;2.00;;
24585;SDS011;12743;52.262;6.172;2023-04-15T11:10:49;4.22;;;1.70;;
24585;SDS011;12743;52.262;6.172;2023-04-15T11:13:04;4.05;;;1.35;;
24585;SDS011;12743;52.262;6.172;2023-04-15T11:15:41;7.63;;;1.80;;
24585;SDS011;12743;52.262;6.172;2023-04-15T11:18:17;5.65;;;2.00;;
24585;SDS011;12743;52.262;6.172;2023-04-15T11:20:48;5.87;;;1.47;;
24585;SDS011;12743;52.262;6.172;2023-04-15T11:23:17;7.05;;;1.70;;
24585;SDS011;12743;52.262;6.172;2023-04-15T11:25:44;9.15;;;2.28;;
24585;SDS011;12743;52.262;6.172;2023-04-15T11:28:11;4.35;;;1.27;;
24585;SDS011;12743;52.262;6.172;2023-04-15T11:30:38;10.82;;;1.50;;
24585;SDS011;12743;52.262;6.172;2023-04-15T11:33:06;7.27;;;1.37;;
24585;SDS011;12743;52.262;6.172;2023-04-15T11:35:34;8.35;;;1.38;;
24585;SDS011;12743;52.262;6.172;2023-04-15T11:38:01;5.75;;;1.50;;
24585;SDS011;12743;52.262;6.172;2023-04-15T11:40:29;5.47;;;1.30;;
24585;SDS011;12743;52.262;6.172;2023-04-15T11:45:31;5.80;;;1.23;;
24585;SDS011;12743;52.262;6.172;2023-04-15T11:48:08;6.22;;;2.00;;
24585;SDS011;12743;52.262;6.172;2023-04-15T11:50:36;5.53;;;1.63;;
24585;SDS011;12743;52.262;6.172;2023-04-15T11:53:06;4.22;;;1.60;;
24585;SDS011;12743;52.262;6.172;2023-04-15T11:55:45;4.35;;;0.95;;
24585;SDS011;12743;52.262;6.172;2023-04-15T11:58:13;4.77;;;1.00;;
24585;SDS011;12743;52.262;6.172;2023-04-15T12:00:46;6.10;;;1.35;;
24585;SDS011;12743;52.262;6.172;2023-04-15T12:06:15;2.72;;;0.90;;
24585;SDS011;12743;52.262;6.172;2023-04-15T12:11:31;15.33;;;1.43;;
24585;SDS011;12743;52.262;6.172;2023-04-15T12:14:03;6.38;;;0.90;;
24585;SDS011;12743;52.262;6.172;2023-04-15T12:16:32;8.13;;;0.98;;
24585;SDS011;12743;52.262;6.172;2023-04-15T12:19:14;11.40;;;0.80;;
24585;SDS011;12743;52.262;6.172;2023-04-15T12:21:47;6.20;;;0.70;;
24585;SDS011;12743;52.262;6.172;2023-04-15T12:24:14;4.13;;;0.73;;
24585;SDS011;12743;52.262;6.172;2023-04-15T12:26:50;5.53;;;1.08;;
24585;SDS011;12743;52.262;6.172;2023-04-15T12:29:19;2.75;;;0.70;;
24585;SDS011;12743;52.262;6.172;2023-04-15T12:31:56;6.72;;;0.50;;
24585;SDS011;12743;52.262;6.172;2023-04-15T12:37:05;3.27;;;0.50;;
24585;SDS011;12743;52.262;6.172;2023-04-15T12:39:36;2.00;;;0.50;;
24585;SDS011;12743;52.262;6.172;2023-04-15T12:42:04;2.10;;;0.50;;
24585;SDS011;12743;52.262;6.172;2023-04-15T12:44:32;3.95;;;0.90;;
24585;SDS011;12743;52.262;6.172;2023-04-15T12:46:59;1.90;;;0.30;;
24585;SDS011;12743;52.262;6.172;2023-04-15T12:49:26;1.20;;;0.30;;
24585;SDS011;12743;52.262;6.172;2023-04-15T12:51:54;3.22;;;0.60;;
24585;SDS011;12743;52.262;6.172;2023-04-15T12:54:21;1.98;;;0.40;;
24585;SDS011;12743;52.262;6.172;2023-04-15T12:56:48;1.55;;;0.40;;
24585;SDS011;12743;52.262;6.172;2023-04-15T12:59:16;3.08;;;0.40;;
24585;SDS011;12743;52.262;6.172;2023-04-15T13:01:45;2.80;;;0.77;;
24585;SDS011;12743;52.262;6.172;2023-04-15T13:04:14;6.85;;;0.63;;
24585;SDS011;12743;52.262;6.172;2023-04-15T13:06:41;2.17;;;0.60;;
24585;SDS011;12743;52.262;6.172;2023-04-15T13:09:08;3.85;;;0.50;;
24585;SDS011;12743;52.262;6.172;2023-04-15T13:11:35;3.65;;;0.70;;
24585;SDS011;12743;52.262;6.172;2023-04-15T13:14:02;3.37;;;0.73;;
24585;SDS011;12743;52.262;6.172;2023-04-15T13:16:31;2.97;;;0.70;;
24585;SDS011;12743;52.262;6.172;2023-04-15T13:18:58;3.58;;;0.50;;
24585;SDS011;12743;52.262;6.172;2023-04-15T13:21:25;3.88;;;0.65;;
24585;SDS011;12743;52.262;6.172;2023-04-15T13:23:53;3.55;;;0.70;;
24585;SDS011;12743;52.262;6.172;2023-04-15T13:26:19;3.03;;;0.70;;
24585;SDS011;12743;52.262;6.172;2023-04-15T13:28:46;3.28;;;0.88;;
24585;SDS011;12743;52.262;6.172;2023-04-15T13:31:13;3.00;;;0.50;;
24585;SDS011;12743;52.262;6.172;2023-04-15T13:33:39;3.35;;;0.68;;
24585;SDS011;12743;52.262;6.172;2023-04-15T13:36:06;3.70;;;0.68;;
24585;SDS011;12743;52.262;6.172;2023-04-15T13:38:33;3.50;;;0.70;;
24585;SDS011;12743;52.262;6.172;2023-04-15T13:40:59;3.42;;;0.60;;
24585;SDS011;12743;52.262;6.172;2023-04-15T13:43:26;3.38;;;0.60;;
24585;SDS011;12743;52.262;6.172;2023-04-15T13:45:52;3.90;;;0.90;;
24585;SDS011;12743;52.262;6.172;2023-04-15T13:48:19;3.10;;;0.75;;
24585;SDS011;12743;52.262;6.172;2023-04-15T13:50:46;3.37;;;0.50;;
24585;SDS011;12743;52.262;6.172;2023-04-15T13:53:12;3.13;;;0.52;;
24585;SDS011;12743;52.262;6.172;2023-04-15T13:55:39;3.70;;;0.82;;
24585;SDS011;12743;52.262;6.172;2023-04-15T13:58:08;4.63;;;0.98;;
24585;SDS011;12743;52.262;6.172;2023-04-15T14:00:35;3.63;;;0.90;;
24585;SDS011;12743;52.262;6.172;2023-04-15T14:03:01;3.67;;;0.80;;
24585;SDS011;12743;52.262;6.172;2023-04-15T14:05:28;5.20;;;1.30;;
24585;SDS011;12743;52.262;6.172;2023-04-15T14:07:55;3.40;;;0.77;;
24585;SDS011;12743;52.262;6.172;2023-04-15T14:10:22;5.10;;;0.90;;
24585;SDS011;12743;52.262;6.172;2023-04-15T14:12:48;5.30;;;1.00;;
24585;SDS011;12743;52.262;6.172;2023-04-15T14:15:15;5.63;;;1.10;;
24585;SDS011;12743;52.262;6.172;2023-04-15T14:17:41;4.22;;;1.13;;
24585;SDS011;12743;52.262;6.172;2023-04-15T14:20:08;6.63;;;1.50;;
24585;SDS011;12743;52.262;6.172;2023-04-15T14:22:35;4.97;;;1.20;;
24585;SDS011;12743;52.262;6.172;2023-04-15T14:25:01;5.40;;;1.00;;
24585;SDS011;12743;52.262;6.172;2023-04-15T14:27:28;6.67;;;1.00;;
24585;SDS011;12743;52.262;6.172;2023-04-15T14:29:54;4.90;;;1.05;;
24585;SDS011;12743;52.262;6.172;2023-04-15T14:32:23;5.35;;;1.42;;
24585;SDS011;12743;52.262;6.172;2023-04-15T14:34:51;4.10;;;0.88;;
24585;SDS011;12743;52.262;6.172;2023-04-15T14:37:17;3.20;;;0.50;;
24585;SDS011;12743;52.262;6.172;2023-04-15T14:39:44;7.93;;;0.80;;
24585;SDS011;12743;52.262;6.172;2023-04-15T14:42:10;6.07;;;0.85;;
24585;SDS011;12743;52.262;6.172;2023-04-15T14:44:37;3.95;;;0.60;;
24585;SDS011;12743;52.262;6.172;2023-04-15T14:47:04;3.78;;;0.80;;
24585;SDS011;12743;52.262;6.172;2023-04-15T14:49:31;5.80;;;1.00;;
24585;SDS011;12743;52.262;6.172;2023-04-15T14:51:57;5.60;;;0.70;;
24585;SDS011;12743;52.262;6.172;2023-04-15T14:54:24;3.55;;;0.73;;
24585;SDS011;12743;52.262;6.172;2023-04-15T14:56:50;6.65;;;1.55;;
24585;SDS011;12743;52.262;6.172;2023-04-15T14:59:17;5.55;;;1.00;;
24585;SDS011;12743;52.262;6.172;2023-04-15T15:01:43;5.13;;;1.52;;
24585;SDS011;12743;52.262;6.172;2023-04-15T15:04:10;9.10;;;1.93;;
24585;SDS011;12743;52.262;6.172;2023-04-15T15:06:37;5.38;;;1.00;;
24585;SDS011;12743;52.262;6.172;2023-04-15T15:09:04;6.28;;;1.30;;